Time;durP1;ratioP1;P1;durP2;ratioP2;P2;SDS_P1;SDS_P2;PMS_P1;PMS_P2;Temp;Humidity;BMP_temperature;BMP_pressure;BME280_temperature;BME280_humidity;BME280_pressure;Samples;Min_cycle;Max_cycle;Signal;HPM_P1;HPM_P2
2022/05/17 00:03:09;;;;;;;0.70;0.40;;;18.40;80.30;;;17.17;65.04;100113.09;10209153;28;97611;-84
2022/05/17 00:08:14;;;;;;;0.57;0.50;;;18.30;82.00;;;17.08;65.50;100112.50;10269529;28;97896;-84
2022/05/17 00:13:17;;;;;;;1.48;1.17;;;18.20;82.70;;;16.97;65.66;100106.97;10236642;28;96517;-84
2022/05/17 00:18:23;;;;;;;2.70;0.93;;;18.10;82.80;;;16.87;66.08;100096.69;10249697;28;96656;-84
2022/05/17 00:23:26;;;;;;;0.63;0.55;;;18.00;83.10;;;16.84;66.17;100099.78;10248118;28;97351;-84
2022/05/17 00:28:30;;;;;;;2.33;1.13;;;18.00;84.10;;;16.84;66.87;100091.72;10239721;28;96684;-84
2022/05/17 00:33:33;;;;;;;1.10;0.90;;;18.00;85.80;;;16.78;66.87;100092.56;10250891;28;98521;-84
2022/05/17 00:38:37;;;;;;;2.53;1.10;;;18.00;86.30;;;16.79;67.51;100091.53;10269465;28;96549;-84
2022/05/17 00:49:02;;;;;;;3.55;0.77;;;17.90;87.10;;;16.83;67.23;100096.28;10241174;28;96757;-84
2022/05/17 00:54:10;;;;;;;0.95;0.75;;;17.90;85.70;;;16.89;67.35;100091.09;10237556;28;96690;-84
2022/05/17 00:59:13;;;;;;;2.17;0.93;;;18.00;88.40;;;16.91;67.25;100094.38;10235992;28;98289;-84
2022/05/17 01:04:23;;;;;;;0.50;0.50;;;18.00;89.30;;;16.93;67.04;100079.75;10215062;28;96740;-84
2022/05/17 01:09:27;;;;;;;0.85;0.75;;;18.00;88.10;;;16.95;66.63;100074.16;10249483;28;98706;-84
2022/05/17 01:19:52;;;;;;;0.98;0.80;;;18.10;87.70;;;17.04;66.56;100072.91;10238573;28;98372;-84
2022/05/17 01:24:55;;;;;;;0.50;0.45;;;18.10;88.40;;;17.08;66.27;100074.91;10259427;28;96671;-84
2022/05/17 01:29:58;;;;;;;1.20;0.80;;;18.20;87.80;;;17.10;66.63;100077.41;10250262;28;96649;-84
2022/05/17 01:35:01;;;;;;;1.50;0.88;;;18.20;89.00;;;17.11;66.86;100071.00;10248797;28;96919;-84
2022/05/17 01:40:05;;;;;;;0.60;0.50;;;18.20;89.50;;;17.11;67.18;100071.81;10251408;28;97184;-84
2022/05/17 01:45:09;;;;;;;0.60;0.60;;;18.20;89.60;;;17.10;67.67;100067.50;10235204;28;98153;-85
2022/05/17 01:50:13;;;;;;;1.15;0.68;;;18.20;90.50;;;17.04;68.26;100068.34;10256038;28;96647;-85
2022/05/17 01:55:16;;;;;;;1.70;0.95;;;18.20;90.40;;;17.05;68.67;100053.88;10238880;28;96702;-85
2022/05/17 02:00:23;;;;;;;0.95;0.55;;;18.20;90.40;;;17.08;69.06;100061.50;10255949;28;97146;-85
2022/05/17 02:05:26;;;;;;;1.45;0.95;;;18.20;91.70;;;17.10;68.82;100066.66;10238918;28;96677;-84
2022/05/17 02:10:29;;;;;;;2.40;1.30;;;18.20;90.90;;;17.13;68.93;100055.47;10267956;28;97225;-84
2022/05/17 02:15:32;;;;;;;2.70;0.70;;;18.20;91.40;;;17.15;69.17;100058.78;10260458;28;96871;-85
2022/05/17 02:20:35;;;;;;;1.95;0.82;;;18.30;91.60;;;17.16;68.82;100055.06;10235672;28;96583;-84
2022/05/17 02:25:38;;;;;;;0.45;0.40;;;18.30;91.80;;;17.17;69.03;100045.16;10268475;28;96606;-84
2022/05/17 02:30:42;;;;;;;1.20;0.50;;;18.30;91.90;;;17.16;68.97;100054.25;10258612;28;97385;-84
2022/05/17 02:35:45;;;;;;;0.70;0.47;;;18.30;92.30;;;17.11;69.51;100046.84;10254922;28;96683;-84
2022/05/17 02:40:48;;;;;;;0.65;0.47;;;18.20;92.60;;;17.06;69.30;100060.06;10264552;28;96419;-84
2022/05/17 02:45:53;;;;;;;1.17;0.65;;;18.20;92.70;;;17.02;69.29;100051.59;10259538;28;96772;-84
2022/05/17 02:51:05;;;;;;;2.58;0.88;;;18.10;92.30;;;17.03;69.30;100055.97;10238243;28;96988;-84
2022/05/17 02:56:09;;;;;;;0.40;0.30;;;18.10;92.50;;;17.02;69.32;100053.47;10272770;28;98486;-85
2022/05/17 03:01:12;;;;;;;0.50;0.40;;;18.20;92.40;;;16.99;69.55;100061.97;10273649;28;98549;-84
2022/05/17 03:06:15;;;;;;;1.58;0.90;;;18.10;92.90;;;16.98;69.73;100057.63;10259000;28;96583;-84
2022/05/17 03:11:18;;;;;;;1.52;0.85;;;18.10;92.90;;;17.02;69.58;100067.72;10276753;28;96720;-84
2022/05/17 03:16:27;;;;;;;0.95;0.52;;;18.10;92.80;;;17.05;69.40;100067.31;10261610;28;96596;-84
2022/05/17 03:21:30;;;;;;;1.65;0.80;;;18.20;93.10;;;17.06;69.47;100068.94;10280400;28;96540;-83
2022/05/17 03:26:34;;;;;;;1.42;0.77;;;18.20;92.90;;;17.09;69.52;100070.38;10283495;28;96454;-84
2022/05/17 03:31:37;;;;;;;0.98;0.63;;;18.20;92.50;;;17.12;69.46;100068.09;10299805;28;96448;-83
2022/05/17 03:36:41;;;;;;;1.15;0.98;;;18.30;92.10;;;17.17;69.48;100067.47;10331445;28;96310;-84
2022/05/17 03:41:44;;;;;;;1.13;0.65;;;18.40;92.10;;;17.20;69.59;100069.69;10254963;28;96700;-84
2022/05/17 03:46:47;;;;;;;1.88;1.13;;;18.40;92.40;;;17.22;69.47;100070.31;10268015;28;98106;-85
2022/05/17 03:51:51;;;;;;;0.77;0.60;;;18.40;92.60;;;17.26;69.67;100086.81;10239388;28;96704;-84
2022/05/17 03:56:54;;;;;;;1.55;1.17;;;18.40;93.00;;;17.23;69.56;100071.97;10279230;28;96991;-84
2022/05/17 04:01:57;;;;;;;1.00;0.90;;;18.40;93.30;;;17.17;69.54;100072.81;10264634;28;96816;-84
2022/05/17 04:07:01;;;;;;;1.25;1.00;;;18.30;93.20;;;17.15;69.91;100069.50;10280168;28;97407;-84
2022/05/17 04:12:05;;;;;;;1.13;0.82;;;18.30;93.70;;;17.10;70.15;100066.66;10244944;28;96567;-84
2022/05/17 04:17:09;;;;;;;1.27;0.50;;;18.20;93.50;;;17.06;70.79;100076.19;10259570;28;98273;-84
2022/05/17 04:22:12;;;;;;;1.40;1.00;;;18.20;93.30;;;17.04;70.78;100072.91;10222268;28;96699;-84
2022/05/17 04:27:15;;;;;;;0.95;0.70;;;18.20;93.20;;;17.03;71.11;100077.44;10248762;28;97677;-84
2022/05/17 04:32:18;;;;;;;0.98;0.80;;;18.20;93.60;;;17.07;71.02;100067.09;10243536;28;96590;-84
2022/05/17 04:37:22;;;;;;;2.05;0.77;;;18.20;93.70;;;17.13;70.76;100066.22;10251833;28;96551;-84
2022/05/17 04:42:25;;;;;;;0.98;0.80;;;18.30;93.80;;;17.19;70.74;100069.91;10246874;28;98688;-84
2022/05/17 04:47:30;;;;;;;1.23;0.47;;;18.40;93.70;;;17.26;70.71;100074.22;10235038;28;98281;-83
2022/05/17 04:52:33;;;;;;;3.28;1.02;;;18.40;94.60;;;17.29;70.98;100073.78;10254605;28;96759;-83
2022/05/17 04:57:37;;;;;;;0.90;0.65;;;18.40;94.90;;;17.35;71.18;100080.19;10251894;28;96775;-83
2022/05/17 05:02:40;;;;;;;8.38;2.03;;;18.50;94.30;;;17.39;71.33;100076.84;10228379;28;96568;-84
2022/05/17 05:07:44;;;;;;;2.97;1.52;;;18.50;93.90;;;17.45;71.29;100064.38;10233488;28;97011;-84
2022/05/17 05:12:47;;;;;;;2.72;1.40;;;18.60;94.20;;;17.52;71.31;100077.81;10269654;28;98034;-84
2022/05/17 05:17:50;;;;;;;2.47;1.55;;;18.70;94.60;;;17.58;71.27;100076.94;10233958;28;96563;-84
2022/05/17 05:22:53;;;;;;;2.17;1.45;;;18.70;94.40;;;17.60;71.20;100078.38;10252238;28;98480;-84
2022/05/17 05:27:56;;;;;;;1.10;1.00;;;18.80;94.00;;;17.64;71.54;100073.41;10253483;28;98416;-84
2022/05/17 05:32:59;;;;;;;1.27;0.98;;;18.80;93.90;;;17.72;71.35;100075.84;10234681;28;97776;-83
2022/05/17 05:38:03;;;;;;;2.80;1.23;;;18.90;94.40;;;17.82;71.55;100075.38;10240534;28;97829;-84
2022/05/17 05:43:06;;;;;;;4.07;1.70;;;19.00;94.40;;;17.93;70.83;100074.63;10253991;28;96619;-84
2022/05/17 05:48:09;;;;;;;2.47;1.70;;;19.10;94.00;;;18.03;70.97;100079.53;10247017;28;96631;-84
2022/05/17 05:53:14;;;;;;;1.52;0.98;;;19.20;94.20;;;18.17;71.05;100075.69;10245375;28;98473;-84
2022/05/17 05:58:17;;;;;;;2.13;1.20;;;19.30;94.20;;;18.34;70.99;100078.63;10263719;28;97897;-84
2022/05/17 06:03:20;;;;;;;1.08;0.85;;;19.50;94.30;;;18.51;70.74;100082.41;10218574;28;96618;-84
2022/05/17 06:08:24;;;;;;;1.65;1.02;;;19.60;94.30;;;18.69;70.01;100084.31;10229968;28;96619;-84
2022/05/17 06:13:27;;;;;;;2.05;0.90;;;19.80;94.10;;;18.87;69.89;100078.94;10231249;28;98159;-84
2022/05/17 06:18:30;;;;;;;1.33;0.68;;;20.00;93.70;;;19.09;69.85;100084.69;10235406;28;96644;-84
2022/05/17 06:23:35;;;;;;;2.10;1.27;;;20.20;93.80;;;19.33;69.39;100082.09;10242754;28;96762;-84
2022/05/17 06:28:38;;;;;;;1.73;1.13;;;20.40;93.60;;;19.55;67.93;100083.22;10252677;28;96664;-84
2022/05/17 06:33:41;;;;;;;1.10;0.93;;;20.60;93.10;;;19.74;67.91;100087.56;10221348;28;96572;-85
2022/05/17 06:38:49;;;;;;;1.83;0.93;;;20.80;92.90;;;19.90;65.46;100080.66;10228301;28;96486;-84
2022/05/17 06:43:53;;;;;;;2.88;1.30;;;21.00;91.80;;;20.02;66.74;100081.50;10254529;28;96682;-83
2022/05/17 06:48:56;;;;;;;1.10;0.75;;;21.10;92.20;;;20.15;65.86;100072.38;10210889;28;96723;-84
2022/05/17 06:53:59;;;;;;;2.22;1.15;;;21.20;91.70;;;20.29;64.67;100081.88;10247066;28;97520;-84
2022/05/17 06:59:03;;;;;;;0.73;0.70;;;21.40;91.20;;;20.40;63.20;100074.84;10211489;28;96868;-84
2022/05/17 07:04:07;;;;;;;0.70;0.63;;;21.50;90.50;;;20.55;62.44;100086.00;10242163;28;97338;-84
2022/05/17 07:09:12;;;;;;;1.08;0.80;;;21.70;90.10;;;20.66;63.30;100080.84;10251586;28;96534;-84
2022/05/17 07:14:15;;;;;;;1.52;0.90;;;21.80;90.10;;;20.75;62.56;100079.41;10235577;28;97403;-84
2022/05/17 07:19:18;;;;;;;1.30;1.00;;;21.90;89.30;;;20.87;61.56;100090.19;10256103;28;96603;-84
2022/05/17 07:24:36;;;;;;;0.63;0.52;;;22.10;88.30;;;20.97;60.57;100093.94;10228838;28;96560;-84
2022/05/17 07:29:39;;;;;;;1.08;0.82;;;22.10;87.30;;;21.10;60.77;100098.22;10261968;28;97177;-85
2022/05/17 07:34:42;;;;;;;1.38;0.75;;;22.30;86.70;;;21.30;59.51;100092.47;10205675;28;96671;-85
2022/05/17 07:39:45;;;;;;;1.27;0.98;;;22.50;86.00;;;21.49;58.77;100101.19;10240059;28;96561;-85
2022/05/17 07:44:48;;;;;;;0.88;0.70;;;22.60;83.90;;;21.58;58.04;100099.72;10249569;28;98029;-85
2022/05/17 07:49:51;;;;;;;1.98;0.73;;;22.70;83.80;;;21.69;58.12;100101.56;10241011;28;96918;-84
2022/05/17 07:54:55;;;;;;;1.83;0.70;;;22.80;82.50;;;21.74;58.14;100100.84;10238722;28;96758;-83
2022/05/17 07:59:58;;;;;;;1.45;0.82;;;22.80;82.90;;;21.75;57.70;100105.19;10238631;28;97056;-84
2022/05/17 08:05:02;;;;;;;1.92;0.85;;;22.90;81.40;;;21.68;57.09;100116.16;10281806;28;96644;-85
2022/05/17 08:10:06;;;;;;;1.05;0.65;;;22.80;81.70;;;21.70;57.70;100113.19;10240068;28;97311;-84
2022/05/17 08:15:10;;;;;;;0.90;0.70;;;22.80;82.20;;;21.68;57.86;100104.50;10263598;28;97468;-84
2022/05/17 08:20:13;;;;;;;0.93;0.70;;;22.70;81.60;;;21.67;57.56;100105.59;10237621;28;97525;-84
2022/05/17 08:30:43;;;;;;;0.95;0.70;;;22.70;81.90;;;21.60;58.41;100111.97;10248867;28;97103;-84
2022/05/17 08:36:01;;;;;;;0.73;0.55;;;22.70;82.10;;;21.56;58.93;100116.19;10246618;28;96781;-84
2022/05/17 08:41:23;;;;;;;0.95;0.60;;;22.60;82.80;;;21.50;58.93;100135.28;10236198;28;97014;-84
2022/05/17 08:47:06;;;;;;;1.00;0.77;;;22.60;83.30;;;21.32;59.23;100123.59;10241385;28;98702;-84
2022/05/17 08:52:32;;;;;;;1.38;0.88;;;22.40;83.10;;;21.14;61.63;100131.00;10220626;28;98163;-84
2022/05/17 08:57:49;;;;;;;1.45;0.68;;;22.20;87.50;;;20.87;62.36;100131.56;10195292;28;96746;-84
2022/05/17 09:03:46;;;;;;;1.05;0.85;;;21.90;87.30;;;20.59;63.12;100137.66;10209573;28;96688;-84
2022/05/17 09:08:49;;;;;;;1.80;0.95;;;21.60;88.00;;;20.48;63.37;100141.19;10206276;28;97079;-84
2022/05/17 09:14:17;;;;;;;1.13;0.77;;;21.50;87.80;;;20.27;62.47;100148.75;10207609;28;96944;-83
2022/05/17 09:19:23;;;;;;;1.15;0.98;;;21.30;87.90;;;20.14;64.75;100150.84;10223937;28;96676;-84
2022/05/17 09:24:40;;;;;;;1.05;0.90;;;21.10;90.70;;;19.97;66.30;100156.06;10200787;28;97058;-83
2022/05/17 09:29:47;;;;;;;1.48;0.98;;;21.00;91.10;;;19.90;66.86;100158.03;10223780;28;96923;-84
2022/05/17 09:35:01;;;;;;;3.55;1.17;;;20.90;91.90;;;19.86;68.11;100154.19;10206236;28;97510;-84
2022/05/17 09:40:08;;;;;;;0.65;0.55;;;20.90;92.70;;;19.86;68.62;100149.59;10238899;28;98335;-83
2022/05/17 09:45:17;;;;;;;1.15;1.02;;;20.90;93.20;;;19.89;69.12;100151.00;10221609;28;96694;-84
2022/05/17 09:55:56;;;;;;;1.23;0.90;;;21.00;93.60;;;20.12;69.12;100156.47;10207417;28;97164;-84
2022/05/17 10:01:07;;;;;;;1.52;0.80;;;21.10;93.50;;;20.29;68.38;100146.66;10253551;28;97461;-84
2022/05/17 10:06:35;;;;;;;1.35;1.00;;;21.30;93.50;;;20.46;67.32;100146.81;10241975;28;97368;-84
2022/05/17 10:11:52;;;;;;;1.83;0.82;;;21.50;93.00;;;20.56;66.44;100138.94;10247879;28;96811;-84
2022/05/17 10:17:08;;;;;;;1.48;1.05;;;21.60;92.10;;;20.67;65.75;100131.06;10214989;28;96728;-84
2022/05/17 10:22:38;;;;;;;0.85;0.77;;;21.70;91.90;;;20.68;64.57;100135.41;10266821;28;97444;-84
2022/05/17 10:27:48;;;;;;;1.70;1.07;;;21.70;90.60;;;20.62;63.24;100136.34;10244368;28;97849;-84
2022/05/17 10:32:57;;;;;;;;;;;21.60;90.10;;;20.52;63.84;100126.16;10226136;28;98848;-84
2022/05/17 10:38:18;;;;;;;1.10;0.80;;;21.50;90.70;;;20.56;63.95;100121.91;10270455;28;97959;-84
2022/05/17 10:43:37;;;;;;;1.20;0.75;;;21.50;90.50;;;20.72;63.57;100121.22;10239564;28;96622;-84
2022/05/17 10:48:58;;;;;;;1.33;0.75;;;21.60;90.40;;;20.76;60.82;100111.59;10262641;28;97056;-84
2022/05/17 10:54:52;;;;;;;1.33;0.80;;;21.70;86.60;;;20.90;60.12;100114.03;10266745;28;98211;-84
2022/05/17 11:00:21;;;;;;;0.82;0.80;;;21.80;84.40;;;20.92;59.56;100104.63;10231117;28;97018;-85
2022/05/17 11:05:43;;;;;;;2.07;0.60;;;21.80;85.20;;;21.04;59.31;100108.13;10247914;28;96715;-85
2022/05/17 11:11:12;;;;;;;1.00;0.57;;;21.90;84.70;;;21.14;59.30;100112.09;10270926;28;96638;-86
2022/05/17 11:16:28;;;;;;;1.33;0.85;;;22.00;85.20;;;21.26;58.70;100110.19;10251928;28;97428;-85
2022/05/17 11:21:42;;;;;;;0.52;0.52;;;22.20;84.60;;;21.37;58.59;100103.94;10253749;28;96956;-85
2022/05/17 11:27:17;;;;;;;1.00;0.60;;;22.40;83.90;;;21.51;57.77;100086.38;10264727;28;96703;-86
2022/05/17 11:32:33;;;;;;;0.70;0.40;;;22.60;83.20;;;21.54;56.71;100087.78;10259410;28;97034;-84
2022/05/17 11:37:38;;;;;;;0.98;0.77;;;22.70;81.70;;;21.58;56.97;100084.31;10257168;28;98256;-84
2022/05/17 11:48:54;;;;;;;0.60;0.50;;;22.80;81.70;;;21.66;57.65;100071.50;10227737;28;96657;-84
2022/05/17 11:53:58;;;;;;;0.73;0.50;;;22.80;81.50;;;21.66;58.29;100064.22;10240089;28;96633;-83
2022/05/17 11:59:13;;;;;;;2.72;0.88;;;22.90;82.30;;;21.68;58.92;100056.66;10274704;28;96939;-84
2022/05/17 12:04:23;;;;;;;1.48;0.88;;;22.80;82.70;;;21.64;58.74;100053.59;10283186;28;96628;-84
2022/05/17 12:09:30;;;;;;;1.58;0.90;;;22.80;82.20;;;21.56;58.83;100062.13;10260107;28;97390;-84
2022/05/17 12:15:08;;;;;;;0.98;0.73;;;22.70;82.30;;;21.48;58.50;100050.91;10262202;28;97044;-84
2022/05/17 12:20:38;;;;;;;1.05;0.73;;;22.60;82.00;;;21.54;58.20;100053.44;10250222;28;97365;-84
2022/05/17 12:25:58;;;;;;;1.08;0.65;;;22.60;81.60;;;21.66;57.53;100047.16;10248005;28;96670;-84
2022/05/17 12:31:26;;;;;;;1.35;0.95;;;22.70;81.00;;;21.75;58.00;100032.16;10231212;28;97581;-84
2022/05/17 12:36:32;;;;;;;1.00;0.60;;;22.90;81.50;;;21.70;57.50;100040.19;10252198;28;96580;-83
2022/05/17 12:47:54;;;;;;;0.47;0.45;;;22.80;81.00;;;21.36;60.21;100038.25;10240152;28;96857;-84
2022/05/17 12:52:58;;;;;;;1.88;1.20;;;22.60;84.70;;;21.17;63.36;100038.66;10261498;28;96642;-84
2022/05/17 12:58:14;;;;;;;1.30;0.88;;;22.30;87.90;;;20.94;63.99;100034.19;10264968;28;96632;-83
2022/05/17 13:03:22;;;;;;;0.75;0.70;;;22.10;87.90;;;20.78;63.51;100038.44;10260839;28;98033;-84
2022/05/17 13:08:35;;;;;;;0.98;0.75;;;21.90;87.30;;;20.67;64.11;100026.59;10253229;28;96482;-83
2022/05/17 13:13:41;;;;;;;1.98;0.88;;;21.80;89.70;;;20.57;63.73;100026.38;10251266;28;96822;-83
2022/05/17 13:18:54;;;;;;;0.80;0.68;;;21.70;88.50;;;20.44;63.73;100023.91;10242223;28;97788;-84
2022/05/17 13:24:04;;;;;;;1.77;1.27;;;21.50;89.30;;;20.37;65.05;100023.22;10245407;28;97295;-83
2022/05/17 13:29:37;;;;;;;2.53;0.90;;;21.40;90.40;;;20.37;66.43;100029.44;10265712;28;97412;-83
2022/05/17 13:34:40;;;;;;;1.05;0.93;;;21.40;91.30;;;20.42;67.56;100017.94;10231858;28;97479;-83
2022/05/17 13:39:53;;;;;;;3.67;1.65;;;21.40;92.00;;;20.54;68.43;100008.78;10246496;28;98085;-83
2022/05/17 13:45:03;;;;;;;2.33;1.00;;;21.50;92.40;;;20.75;68.59;100007.34;10253578;28;97442;-84
2022/05/17 13:50:11;;;;;;;2.75;1.20;;;21.70;92.80;;;20.97;68.75;100002.09;10231125;28;96752;-83
2022/05/17 13:55:33;;;;;;;6.80;1.15;;;21.90;92.90;;;21.19;68.57;99990.63;10248835;28;96639;-84
2022/05/17 14:00:54;;;;;;;1.80;1.25;;;22.20;92.60;;;21.33;66.58;99978.44;10265924;28;96696;-83
2022/05/17 14:06:16;;;;;;;1.25;0.95;;;22.40;91.70;;;21.36;65.90;99992.31;10247425;28;97528;-84
2022/05/17 14:17:00;;;;;;;2.10;0.90;;;22.40;91.20;;;21.11;67.54;99987.25;10244924;28;96682;-83
2022/05/17 14:22:08;;;;;;;1.38;1.02;;;22.30;92.80;;;20.99;68.01;99989.19;10268012;28;96753;-83
2022/05/17 14:27:11;;;;;;;1.33;0.93;;;22.10;93.50;;;20.86;68.50;99994.84;10258726;28;96973;-83
2022/05/17 14:32:15;;;;;;;4.03;1.58;;;21.90;93.90;;;20.56;67.78;99979.66;10230644;28;96637;-84
2022/05/17 14:37:17;;;;;;;1.88;1.27;;;21.70;93.50;;;20.37;68.49;99980.84;10277937;28;96606;-84
2022/05/17 14:42:20;;;;;;;1.70;0.80;;;21.40;93.60;;;20.26;69.22;99979.00;10246898;28;96676;-84
2022/05/17 14:47:25;;;;;;;1.95;1.27;;;21.30;94.70;;;20.14;68.24;99973.59;10237604;28;96876;-84
2022/05/17 14:52:29;;;;;;;2.45;1.63;;;21.20;93.80;;;20.10;70.05;99974.34;10255427;28;96605;-84
2022/05/17 14:57:33;;;;;;;2.40;1.38;;;21.10;94.90;;;20.15;69.32;99977.13;10288567;28;96676;-82
2022/05/17 15:02:38;;;;;;;2.15;1.48;;;21.20;94.70;;;20.29;69.07;99978.53;10234945;28;97610;-83
2022/05/17 15:07:48;;;;;;;2.60;1.67;;;21.30;94.70;;;20.29;68.79;99978.53;10261773;28;96802;-83
2022/05/17 15:12:53;;;;;;;;;;;21.20;94.40;;;20.32;68.06;99978.84;10233957;28;96640;-87
2022/05/17 15:18:06;;;;;;;3.13;0.90;;;21.30;93.70;;;20.22;67.09;99973.25;10233135;28;96853;-85
2022/05/17 15:23:10;;;;;;;1.05;0.90;;;21.20;93.00;;;20.16;67.22;99963.41;10219615;28;98445;-85
2022/05/17 15:28:14;;;;;;;4.43;1.00;;;21.20;93.30;;;20.20;68.24;99974.53;10238544;28;96648;-84
2022/05/17 15:33:19;;;;;;;1.30;0.85;;;21.20;93.80;;;20.26;67.43;99973.59;10245917;28;96719;-84
2022/05/17 15:38:31;;;;;;;0.73;0.70;;;21.30;93.30;;;20.30;67.65;99963.97;10253243;28;96741;-84
2022/05/17 15:43:35;;;;;;;2.35;1.02;;;21.30;93.30;;;20.34;67.07;99954.34;10252826;28;97034;-84
2022/05/17 15:54:01;;;;;;;1.55;1.05;;;21.50;92.70;;;20.37;67.62;99970.06;10259104;28;96772;-83
2022/05/17 15:59:04;;;;;;;1.55;1.20;;;21.50;92.90;;;20.31;68.92;99966.44;10259178;28;98451;-85
2022/05/17 16:09:30;;;;;;;1.50;0.98;;;21.30;97.30;;;19.48;75.35;99972.84;10251236;28;96621;-85
2022/05/17 16:14:33;;;;;;;1.35;0.73;;;20.80;99.90;;;18.90;78.59;99994.22;10268257;28;97395;-85
2022/05/17 16:19:43;;;;;;;1.55;1.20;;;20.20;99.90;;;18.36;80.95;100002.06;10254750;28;96429;-84
2022/05/17 16:24:46;;;;;;;1.50;0.77;;;19.60;99.90;;;17.92;83.14;100000.41;10269021;28;96656;-83
2022/05/17 16:29:49;;;;;;;1.08;0.98;;;19.10;99.90;;;17.55;84.64;99988.69;10269898;28;96720;-83
2022/05/17 16:34:52;;;;;;;2.08;0.65;;;18.70;99.90;;;17.30;86.62;99997.56;10253083;28;96532;-83
2022/05/17 16:39:55;;;;;;;0.95;0.85;;;18.50;99.90;;;17.18;88.29;99982.34;10255440;28;96388;-84
2022/05/17 16:44:58;;;;;;;2.10;1.05;;;18.30;99.90;;;17.09;89.60;99977.25;10253549;28;96587;-83
2022/05/17 16:50:27;;;;;;;1.23;0.75;;;18.20;99.90;;;17.05;91.23;99984.09;10253545;28;97169;-83
2022/05/17 16:55:31;;;;;;;1.45;1.10;;;18.20;99.90;;;17.02;92.52;99979.13;10256879;28;96705;-83
2022/05/17 17:00:35;;;;;;;1.60;1.02;;;18.10;99.90;;;16.98;93.15;99977.94;10254943;28;96836;-83
2022/05/17 17:05:42;;;;;;;1.42;0.80;;;18.10;99.90;;;17.00;94.13;99969.66;10256031;28;96505;-83
2022/05/17 17:10:47;;;;;;;1.75;1.35;;;18.00;99.90;;;17.02;94.97;99979.13;10251931;28;96519;-84
2022/05/17 17:15:51;;;;;;;1.15;1.02;;;18.10;99.90;;;17.02;95.72;99984.50;10267738;28;96518;-84
2022/05/17 17:20:54;;;;;;;2.30;1.50;;;18.10;99.90;;;16.98;96.17;99979.78;10267078;28;96573;-84
2022/05/17 17:25:59;;;;;;;2.50;1.77;;;18.00;99.90;;;16.96;96.43;99980.00;10268454;28;96805;-84
2022/05/17 17:31:02;;;;;;;2.72;1.90;;;18.00;99.90;;;16.96;97.12;99979.16;10240887;28;96998;-82
2022/05/17 17:41:27;;;;;;;6.18;2.90;;;18.00;99.90;;;17.01;98.04;99998.97;10242220;28;97283;-84
2022/05/17 17:46:30;;;;;;;1.85;1.50;;;18.00;99.90;;;17.01;98.31;100004.31;10235326;28;97292;-85
2022/05/17 17:51:33;;;;;;;2.28;1.33;;;18.00;99.90;;;16.99;98.60;100009.09;10260200;28;97162;-85
2022/05/17 17:56:37;;;;;;;2.35;1.25;;;18.00;99.90;;;16.97;98.80;100005.81;10247361;28;97730;-85
2022/05/17 18:01:40;;;;;;;5.25;2.38;;;18.00;99.90;;;16.97;99.27;100019.25;10236460;28;96740;-85
2022/05/17 18:06:45;;;;;;;3.22;2.10;;;18.00;99.90;;;16.96;99.52;100009.50;10243193;28;96682;-85
2022/05/17 18:11:48;;;;;;;2.63;1.77;;;18.00;99.90;;;16.95;99.61;100013.25;10249651;28;96615;-85
2022/05/17 18:16:53;;;;;;;1.50;1.08;;;18.00;99.90;;;16.92;99.99;100037.00;10233875;28;96618;-85
2022/05/17 18:21:58;;;;;;;1.23;1.13;;;18.00;99.90;;;16.90;100.00;100037.22;10264711;28;98271;-85
2022/05/17 18:27:02;;;;;;;2.70;1.52;;;18.00;99.90;;;16.92;100.00;100069.22;10243724;28;96643;-85
2022/05/17 18:32:28;;;;;;;0.57;0.57;;;18.00;99.90;;;16.62;96.90;100084.97;10258518;28;96643;-88
2022/05/17 18:37:33;;;;;;;0.70;0.70;;;17.80;99.90;;;16.32;96.42;100102.34;10220610;28;98501;-90
2022/05/17 18:42:36;;;;;;;0.50;0.45;;;17.50;99.90;;;15.92;94.55;100106.88;10215114;28;96649;-90
2022/05/17 18:47:50;;;;;;;0.57;0.57;;;17.20;99.90;;;15.62;95.03;100122.47;10263899;28;98087;-90
2022/05/17 18:52:55;;;;;;;0.40;0.30;;;16.90;99.90;;;15.47;95.57;100129.81;10249809;28;96537;-90
2022/05/17 18:57:58;;;;;;;0.32;0.20;;;16.80;99.90;;;15.33;96.28;100149.53;10229294;28;98238;-90
2022/05/17 19:03:04;;;;;;;1.42;0.80;;;16.60;99.90;;;15.21;96.22;100158.13;10252811;28;97266;-89
2022/05/17 19:13:34;;;;;;;0.95;0.85;;;16.40;99.90;;;15.11;97.48;100183.59;10244283;28;96636;-89
2022/05/17 19:18:46;;;;;;;0.85;0.68;;;16.30;99.90;;;15.09;98.26;100194.53;10251675;28;98205;-89
2022/05/17 19:23:50;;;;;;;0.65;0.43;;;16.30;99.90;;;15.07;98.17;100206.47;10219331;28;96746;-89
2022/05/17 19:28:53;;;;;;;0.73;0.63;;;16.30;99.90;;;15.02;98.17;100209.72;10223929;28;96533;-89
2022/05/17 19:34:00;;;;;;;1.75;0.93;;;16.30;99.90;;;14.99;98.51;100220.78;10252872;28;96717;-90
2022/05/17 19:44:25;;;;;;;0.45;0.30;;;16.20;99.90;;;14.95;98.88;100216.88;10230580;28;96713;-91
2022/05/17 19:49:44;;;;;;;0.77;0.47;;;16.20;99.90;;;14.93;98.84;100222.44;10261906;28;97235;-91
2022/05/17 19:54:49;;;;;;;0.50;0.47;;;16.20;99.90;;;14.92;98.97;100234.13;10268970;28;96835;-90
2022/05/17 19:59:52;;;;;;;1.40;0.43;;;16.10;99.90;;;14.92;99.23;100222.59;10254263;28;98503;-91
2022/05/17 20:04:55;;;;;;;0.80;0.40;;;16.10;99.90;;;14.89;99.24;100234.53;10269676;28;97969;-90
2022/05/17 20:10:00;;;;;;;1.13;0.25;;;16.10;99.90;;;14.87;99.51;100236.59;10271273;28;96592;-90
2022/05/17 20:15:05;;;;;;;1.58;0.93;;;16.10;99.90;;;14.84;99.47;100241.50;10229941;28;98197;-89
2022/05/17 20:20:10;;;;;;;0.50;0.38;;;16.00;99.90;;;14.84;99.67;100246.84;10231582;28;97715;-90
2022/05/17 20:25:26;;;;;;;1.10;0.70;;;16.00;99.90;;;14.85;99.77;100256.53;10253296;28;96612;-90
2022/05/17 20:30:29;;;;;;;0.68;0.40;;;16.10;99.90;;;14.85;99.76;100253.84;10226037;28;96629;-90
2022/05/17 20:35:33;;;;;;;0.40;0.25;;;16.10;99.90;;;14.85;99.99;100257.34;10266783;28;98155;-90
2022/05/17 20:40:39;;;;;;;0.28;0.28;;;16.10;99.90;;;14.86;100.00;100266.19;10278575;28;96637;-89
2022/05/17 20:45:44;;;;;;;0.60;0.60;;;16.10;99.90;;;14.84;99.95;100261.03;10227860;28;97909;-90
2022/05/17 20:50:50;;;;;;;0.77;0.55;;;16.10;99.90;;;14.84;100.00;100274.41;10250693;28;98174;-89
2022/05/17 20:55:53;;;;;;;0.75;0.40;;;16.10;99.90;;;14.84;99.57;100273.59;10230988;28;96617;-89
2022/05/17 21:00:56;;;;;;;0.50;0.40;;;16.00;99.90;;;14.83;99.02;100269.28;10239754;28;96690;-89
2022/05/17 21:06:00;;;;;;;1.00;0.40;;;16.00;99.90;;;14.80;98.73;100272.31;10278714;28;96615;-90
2022/05/17 21:11:04;;;;;;;0.75;0.68;;;16.00;99.90;;;14.78;98.75;100285.91;10240632;28;96556;-90
2022/05/17 21:16:07;;;;;;;0.28;0.28;;;16.00;99.90;;;14.73;97.98;100285.66;10233091;28;96856;-89
2022/05/17 21:21:10;;;;;;;0.32;0.32;;;15.90;99.90;;;14.69;96.81;100285.22;10234232;28;96673;-89
2022/05/17 21:26:13;;;;;;;1.25;0.70;;;15.90;99.90;;;14.68;96.91;100291.56;10249894;28;96697;-89
2022/05/17 21:31:16;;;;;;;0.70;0.70;;;15.90;99.90;;;14.65;96.71;100307.19;10264570;28;96660;-90
2022/05/17 21:36:20;;;;;;;1.63;0.30;;;15.80;99.90;;;14.61;96.23;100311.25;10249369;28;97313;-89
2022/05/17 21:41:23;;;;;;;0.73;0.57;;;15.80;99.90;;;14.59;96.38;100324.81;10229338;28;96847;-89
2022/05/17 21:46:29;;;;;;;0.30;0.25;;;15.80;99.90;;;14.60;96.16;100322.97;10254914;28;98294;-89
2022/05/17 21:51:33;;;;;;;0.20;0.20;;;15.70;99.90;;;14.60;96.28;100337.16;10247022;28;97693;-89
2022/05/17 21:56:36;;;;;;;1.05;0.45;;;15.80;99.90;;;14.59;96.04;100342.72;10220754;28;96630;-90
2022/05/17 22:01:40;;;;;;;0.68;0.47;;;15.80;99.90;;;14.61;96.13;100349.53;10277551;28;96576;-89
2022/05/17 22:06:43;;;;;;;1.00;0.77;;;15.80;99.90;;;14.59;95.82;100354.25;10247096;28;97135;-89
2022/05/17 22:17:09;;;;;;;1.42;0.50;;;15.80;99.90;;;14.61;95.13;100370.09;10236207;28;96972;-89
2022/05/17 22:22:13;;;;;;;0.50;0.50;;;15.80;99.90;;;14.60;95.25;100379.13;10255548;28;96561;-89